sensor_id;sensor_type;location;lat;lon;timestamp;pressure;altitude;pressure_sealevel;temperature;humidity
10618;BME280;5356;43.526;26.534;2023-04-02T01:18:52;97855.16;;;10.67;100.00
10618;BME280;5356;43.526;26.534;2023-04-02T02:21:11;97882.78;;;10.88;100.00
10618;BME280;5356;43.526;26.534;2023-04-02T02:34:40;97886.00;;;10.95;100.00
10618;BME280;5356;43.526;26.534;2023-04-02T02:37:17;97887.88;;;10.95;100.00
10618;BME280;5356;43.526;26.534;2023-04-02T02:39:51;97888.72;;;11.00;100.00
10618;BME280;5356;43.526;26.534;2023-04-02T02:42:31;97878.56;;;10.97;100.00
10618;BME280;5356;43.526;26.534;2023-04-02T02:44:59;97879.94;;;11.00;100.00
10618;BME280;5356;43.526;26.534;2023-04-02T02:47:31;97875.91;;;10.97;100.00
10618;BME280;5356;43.526;26.534;2023-04-02T02:50:01;97869.03;;;11.01;100.00
10618;BME280;5356;43.526;26.534;2023-04-02T02:52:31;97879.69;;;11.01;100.00
10618;BME280;5356;43.526;26.534;2023-04-02T02:54:59;97868.22;;;11.01;100.00
10618;BME280;5356;43.526;26.534;2023-04-02T02:57:30;97869.00;;;10.96;100.00
10618;BME280;5356;43.526;26.534;2023-04-02T02:59:59;97859.94;;;10.97;100.00
10618;BME280;5356;43.526;26.534;2023-04-02T03:02:27;97856.47;;;10.97;100.00
10618;BME280;5356;43.526;26.534;2023-04-02T03:04:54;97847.13;;;10.94;100.00
10618;BME280;5356;43.526;26.534;2023-04-02T03:07:22;97852.72;;;10.93;100.00
10618;BME280;5356;43.526;26.534;2023-04-02T03:10:13;97859.63;;;10.94;100.00
10618;BME280;5356;43.526;26.534;2023-04-02T03:13:04;97867.34;;;10.90;100.00
10618;BME280;5356;43.526;26.534;2023-04-02T03:21:27;97865.69;;;10.84;100.00
10618;BME280;5356;43.526;26.534;2023-04-02T03:29:15;97875.81;;;10.82;100.00
10618;BME280;5356;43.526;26.534;2023-04-02T03:31:47;97885.16;;;10.85;100.00
10618;BME280;5356;43.526;26.534;2023-04-02T03:34:54;97895.00;;;10.84;100.00
10618;BME280;5356;43.526;26.534;2023-04-02T03:37:37;97890.47;;;10.85;100.00
10618;BME280;5356;43.526;26.534;2023-04-02T03:40:13;97895.00;;;10.84;100.00
10618;BME280;5356;43.526;26.534;2023-04-02T03:42:52;97900.34;;;10.84;100.00
10618;BME280;5356;43.526;26.534;2023-04-02T03:45:26;97908.91;;;10.91;100.00
10618;BME280;5356;43.526;26.534;2023-04-02T03:48:02;97900.84;;;10.86;100.00
10618;BME280;5356;43.526;26.534;2023-04-02T03:53:07;97921.72;;;10.94;100.00
10618;BME280;5356;43.526;26.534;2023-04-02T03:55:35;97912.06;;;10.88;100.00
10618;BME280;5356;43.526;26.534;2023-04-02T03:58:13;97916.34;;;10.89;100.00
10618;BME280;5356;43.526;26.534;2023-04-02T04:01:02;97912.63;;;10.90;100.00
10618;BME280;5356;43.526;26.534;2023-04-02T04:03:37;97915.31;;;10.90;100.00
10618;BME280;5356;43.526;26.534;2023-04-02T04:06:22;97920.41;;;10.97;100.00
10618;BME280;5356;43.526;26.534;2023-04-02T04:12:07;97923.31;;;10.95;100.00
10618;BME280;5356;43.526;26.534;2023-04-02T04:14:36;97937.19;;;10.97;100.00
10618;BME280;5356;43.526;26.534;2023-04-02T04:22:23;97933.72;;;10.97;100.00
10618;BME280;5356;43.526;26.534;2023-04-02T04:24:59;97938.84;;;11.04;100.00
10618;BME280;5356;43.526;26.534;2023-04-02T04:32:55;97956.47;;;11.05;100.00
10618;BME280;5356;43.526;26.534;2023-04-02T04:35:32;97953.78;;;11.05;100.00
10618;BME280;5356;43.526;26.534;2023-04-02T04:38:02;97964.44;;;11.05;100.00
10618;BME280;5356;43.526;26.534;2023-04-02T04:40:35;97969.47;;;11.01;100.00
10618;BME280;5356;43.526;26.534;2023-04-02T04:43:11;97970.06;;;11.08;100.00
10618;BME280;5356;43.526;26.534;2023-04-02T04:48:18;97973.59;;;11.14;100.00
10618;BME280;5356;43.526;26.534;2023-04-02T04:53:20;97987.38;;;11.06;100.00
10618;BME280;5356;43.526;26.534;2023-04-02T04:55:48;97987.25;;;10.95;100.00
10618;BME280;5356;43.526;26.534;2023-04-02T04:58:25;97982.25;;;10.99;100.00
10618;BME280;5356;43.526;26.534;2023-04-02T05:01:06;97986.88;;;11.09;100.00
10618;BME280;5356;43.526;26.534;2023-04-02T05:03:43;97987.59;;;10.99;100.00
10618;BME280;5356;43.526;26.534;2023-04-02T05:06:33;97977.97;;;10.98;100.00
10618;BME280;5356;43.526;26.534;2023-04-02T05:09:10;97989.44;;;10.98;100.00
10618;BME280;5356;43.526;26.534;2023-04-02T05:11:42;97988.88;;;10.96;100.00
10618;BME280;5356;43.526;26.534;2023-04-02T05:14:42;97996.97;;;11.07;100.00
10618;BME280;5356;43.526;26.534;2023-04-02T05:17:18;97994.81;;;11.04;100.00
10618;BME280;5356;43.526;26.534;2023-04-02T05:27:50;98004.97;;;11.07;100.00
10618;BME280;5356;43.526;26.534;2023-04-02T05:32:54;98002.78;;;11.04;100.00
10618;BME280;5356;43.526;26.534;2023-04-02T05:35:28;98007.03;;;10.99;100.00
10618;BME280;5356;43.526;26.534;2023-04-02T05:37:54;98017.75;;;11.05;100.00
10618;BME280;5356;43.526;26.534;2023-04-02T05:40:28;98024.69;;;11.06;100.00
10618;BME280;5356;43.526;26.534;2023-04-02T05:42:56;98030.00;;;11.06;100.00
10618;BME280;5356;43.526;26.534;2023-04-02T05:45:35;98026.34;;;11.12;100.00
10618;BME280;5356;43.526;26.534;2023-04-02T05:48:08;98018.59;;;11.10;100.00
10618;BME280;5356;43.526;26.534;2023-04-02T05:50:43;98030.31;;;11.09;100.00
10618;BME280;5356;43.526;26.534;2023-04-02T05:53:14;98040.00;;;11.20;100.00
10618;BME280;5356;43.526;26.534;2023-04-02T05:59:11;98040.06;;;11.26;100.00
10618;BME280;5356;43.526;26.534;2023-04-02T06:03:59;98057.41;;;11.28;100.00
10618;BME280;5356;43.526;26.534;2023-04-02T06:09:09;98057.38;;;11.23;100.00
10618;BME280;5356;43.526;26.534;2023-04-02T06:11:40;98064.81;;;11.21;100.00
10618;BME280;5356;43.526;26.534;2023-04-02T06:14:11;98063.75;;;11.22;100.00
10618;BME280;5356;43.526;26.534;2023-04-02T06:16:38;98063.31;;;11.30;100.00
10618;BME280;5356;43.526;26.534;2023-04-02T06:19:10;98071.84;;;11.32;100.00
10618;BME280;5356;43.526;26.534;2023-04-02T06:21:48;98061.69;;;11.29;100.00
10618;BME280;5356;43.526;26.534;2023-04-02T06:24:18;98067.34;;;11.33;100.00
10618;BME280;5356;43.526;26.534;2023-04-02T06:26:51;98067.69;;;11.41;100.00
10618;BME280;5356;43.526;26.534;2023-04-02T06:29:33;98070.94;;;11.49;100.00
10618;BME280;5356;43.526;26.534;2023-04-02T06:32:07;98077.84;;;11.44;100.00
10618;BME280;5356;43.526;26.534;2023-04-02T06:34:36;98079.00;;;11.54;100.00
10618;BME280;5356;43.526;26.534;2023-04-02T06:39:48;98080.19;;;11.68;100.00
10618;BME280;5356;43.526;26.534;2023-04-02T06:42:39;98079.16;;;11.74;100.00
10618;BME280;5356;43.526;26.534;2023-04-02T06:45:15;98080.38;;;11.88;100.00
10618;BME280;5356;43.526;26.534;2023-04-02T06:47:44;98075.63;;;11.96;100.00
10618;BME280;5356;43.526;26.534;2023-04-02T06:50:41;98085.75;;;11.94;100.00
10618;BME280;5356;43.526;26.534;2023-04-02T06:53:59;98088.41;;;11.94;100.00
10618;BME280;5356;43.526;26.534;2023-04-02T06:56:04;98088.75;;;12.02;100.00
10618;BME280;5356;43.526;26.534;2023-04-02T06:58:32;98089.84;;;12.06;100.00
10618;BME280;5356;43.526;26.534;2023-04-02T07:00:57;98091.53;;;12.23;100.00
10618;BME280;5356;43.526;26.534;2023-04-02T07:03:26;98086.19;;;12.18;100.00
10618;BME280;5356;43.526;26.534;2023-04-02T07:05:53;98104.56;;;12.09;100.00
10618;BME280;5356;43.526;26.534;2023-04-02T07:08:18;98103.78;;;12.13;100.00
10618;BME280;5356;43.526;26.534;2023-04-02T07:10:44;98098.31;;;12.35;100.00
10618;BME280;5356;43.526;26.534;2023-04-02T07:13:23;98104.56;;;12.51;100.00
10618;BME280;5356;43.526;26.534;2023-04-02T07:15:53;98101.06;;;12.51;100.00
10618;BME280;5356;43.526;26.534;2023-04-02T07:18:25;98105.97;;;12.64;100.00
10618;BME280;5356;43.526;26.534;2023-04-02T07:20:52;98114.81;;;12.75;100.00
10618;BME280;5356;43.526;26.534;2023-04-02T07:23:17;98108.72;;;12.85;100.00
10618;BME280;5356;43.526;26.534;2023-04-02T07:25:46;98106.13;;;13.00;100.00
10618;BME280;5356;43.526;26.534;2023-04-02T07:28:11;98108.28;;;13.08;100.00
10618;BME280;5356;43.526;26.534;2023-04-02T07:30:39;98117.38;;;13.12;100.00
10618;BME280;5356;43.526;26.534;2023-04-02T07:33:05;98121.16;;;13.21;100.00
10618;BME280;5356;43.526;26.534;2023-04-02T07:35:31;98114.75;;;13.22;100.00
10618;BME280;5356;43.526;26.534;2023-04-02T07:37:56;98119.59;;;13.25;100.00
10618;BME280;5356;43.526;26.534;2023-04-02T07:40:23;98122.28;;;13.31;100.00
10618;BME280;5356;43.526;26.534;2023-04-02T07:42:49;98130.03;;;13.32;100.00
10618;BME280;5356;43.526;26.534;2023-04-02T07:45:15;98133.72;;;13.21;100.00
10618;BME280;5356;43.526;26.534;2023-04-02T07:47:40;98139.06;;;13.21;100.00
10618;BME280;5356;43.526;26.534;2023-04-02T07:50:07;98144.66;;;13.14;100.00
10618;BME280;5356;43.526;26.534;2023-04-02T07:52:37;98144.69;;;13.24;100.00
10618;BME280;5356;43.526;26.534;2023-04-02T07:55:03;98153.50;;;13.20;100.00
10618;BME280;5356;43.526;26.534;2023-04-02T07:57:30;98145.75;;;13.18;100.00
10618;BME280;5356;43.526;26.534;2023-04-02T07:59:55;98147.16;;;13.26;100.00
10618;BME280;5356;43.526;26.534;2023-04-02T08:02:22;98139.16;;;13.36;100.00
10618;BME280;5356;43.526;26.534;2023-04-02T08:04:49;98143.19;;;13.44;100.00
10618;BME280;5356;43.526;26.534;2023-04-02T08:07:16;98152.00;;;13.44;100.00
10618;BME280;5356;43.526;26.534;2023-04-02T08:09:43;98153.38;;;13.52;100.00
10618;BME280;5356;43.526;26.534;2023-04-02T08:12:12;98155.00;;;13.63;100.00
10618;BME280;5356;43.526;26.534;2023-04-02T08:14:37;98152.31;;;13.58;100.00
10618;BME280;5356;43.526;26.534;2023-04-02T08:17:03;98160.91;;;13.65;100.00
10618;BME280;5356;43.526;26.534;2023-04-02T08:19:28;98165.72;;;13.74;100.00
10618;BME280;5356;43.526;26.534;2023-04-02T08:21:54;98164.13;;;13.67;100.00
10618;BME280;5356;43.526;26.534;2023-04-02T08:24:20;98164.34;;;13.61;100.00
10618;BME280;5356;43.526;26.534;2023-04-02T08:26:48;98167.84;;;13.56;100.00
10618;BME280;5356;43.526;26.534;2023-04-02T08:29:14;98175.88;;;13.56;100.00
10618;BME280;5356;43.526;26.534;2023-04-02T08:31:39;98172.94;;;13.63;100.00
10618;BME280;5356;43.526;26.534;2023-04-02T08:34:05;98177.50;;;13.78;100.00
10618;BME280;5356;43.526;26.534;2023-04-02T08:36:35;98179.94;;;13.79;100.00
10618;BME280;5356;43.526;26.534;2023-04-02T08:39:02;98180.75;;;13.90;100.00
10618;BME280;5356;43.526;26.534;2023-04-02T08:41:35;98179.66;;;14.06;100.00
10618;BME280;5356;43.526;26.534;2023-04-02T08:46:54;98183.97;;;14.18;100.00
10618;BME280;5356;43.526;26.534;2023-04-02T08:49:30;98196.28;;;14.13;100.00
10618;BME280;5356;43.526;26.534;2023-04-02T08:51:57;98194.13;;;14.05;100.00
10618;BME280;5356;43.526;26.534;2023-04-02T08:54:27;98193.06;;;14.06;100.00
10618;BME280;5356;43.526;26.534;2023-04-02T08:59:37;98196.28;;;14.24;100.00
10618;BME280;5356;43.526;26.534;2023-04-02T09:03:05;98201.63;;;14.24;100.00
10618;BME280;5356;43.526;26.534;2023-04-02T09:05:17;98191.75;;;14.24;100.00
10618;BME280;5356;43.526;26.534;2023-04-02T09:07:45;98207.00;;;14.34;100.00
10618;BME280;5356;43.526;26.534;2023-04-02T09:10:15;98197.38;;;14.53;100.00
10618;BME280;5356;43.526;26.534;2023-04-02T09:12:42;98198.44;;;14.57;100.00
10618;BME280;5356;43.526;26.534;2023-04-02T09:15:33;98197.91;;;14.60;100.00
10618;BME280;5356;43.526;26.534;2023-04-02T09:18:12;98195.25;;;14.55;100.00
10618;BME280;5356;43.526;26.534;2023-04-02T09:20:38;98206.50;;;14.52;100.00
10618;BME280;5356;43.526;26.534;2023-04-02T09:23:04;98197.91;;;14.66;100.00
10618;BME280;5356;43.526;26.534;2023-04-02T09:25:30;98198.69;;;14.71;100.00
10618;BME280;5356;43.526;26.534;2023-04-02T09:27:59;98190.34;;;14.88;100.00
10618;BME280;5356;43.526;26.534;2023-04-02T09:30:57;98199.69;;;15.06;100.00
10618;BME280;5356;43.526;26.534;2023-04-02T09:33:44;98191.34;;;15.13;100.00
10618;BME280;5356;43.526;26.534;2023-04-02T09:39:05;98203.13;;;15.22;100.00
10618;BME280;5356;43.526;26.534;2023-04-02T09:41:40;98198.50;;;15.43;100.00
10618;BME280;5356;43.526;26.534;2023-04-02T09:44:26;98210.72;;;15.59;100.00
10618;BME280;5356;43.526;26.534;2023-04-02T09:46:53;98212.63;;;15.59;98.49
10618;BME280;5356;43.526;26.534;2023-04-02T09:49:23;98214.78;;;15.57;96.88
10618;BME280;5356;43.526;26.534;2023-04-02T09:52:25;98214.75;;;15.62;97.01
10618;BME280;5356;43.526;26.534;2023-04-02T09:57:32;98220.94;;;16.12;93.84
10618;BME280;5356;43.526;26.534;2023-04-02T10:00:09;98217.63;;;16.25;90.86
10618;BME280;5356;43.526;26.534;2023-04-02T10:02:39;98220.25;;;16.30;90.48
10618;BME280;5356;43.526;26.534;2023-04-02T10:05:09;98218.66;;;16.29;90.53
10618;BME280;5356;43.526;26.534;2023-04-02T10:07:45;98208.44;;;16.31;89.61
10618;BME280;5356;43.526;26.534;2023-04-02T10:10:34;98221.25;;;16.45;90.89
10618;BME280;5356;43.526;26.534;2023-04-02T10:13:05;98220.09;;;16.51;88.95
10618;BME280;5356;43.526;26.534;2023-04-02T10:15:37;98222.00;;;16.50;87.80
10618;BME280;5356;43.526;26.534;2023-04-02T10:18:35;98220.75;;;16.37;87.97
10618;BME280;5356;43.526;26.534;2023-04-02T10:20:56;98219.72;;;16.33;90.04
10618;BME280;5356;43.526;26.534;2023-04-02T10:23:26;98220.22;;;16.35;90.01
10618;BME280;5356;43.526;26.534;2023-04-02T10:31:22;98231.28;;;16.29;90.53
10618;BME280;5356;43.526;26.534;2023-04-02T10:34:00;98234.56;;;16.21;87.05
10618;BME280;5356;43.526;26.534;2023-04-02T10:36:58;98230.97;;;16.35;89.09
10618;BME280;5356;43.526;26.534;2023-04-02T10:39:40;98224.38;;;16.52;89.66
10618;BME280;5356;43.526;26.534;2023-04-02T10:42:39;98230.91;;;16.75;88.45
10618;BME280;5356;43.526;26.534;2023-04-02T10:51:05;98233.72;;;17.42;84.88
10618;BME280;5356;43.526;26.534;2023-04-02T10:56:42;98223.06;;;17.74;79.64
10618;BME280;5356;43.526;26.534;2023-04-02T11:01:42;98217.28;;;17.86;78.79
10618;BME280;5356;43.526;26.534;2023-04-02T11:04:18;98219.31;;;17.94;77.04
10618;BME280;5356;43.526;26.534;2023-04-02T11:06:58;98227.81;;;17.83;76.17
10618;BME280;5356;43.526;26.534;2023-04-02T11:09:29;98224.16;;;17.73;75.65
10618;BME280;5356;43.526;26.534;2023-04-02T11:11:58;98227.81;;;17.83;76.04
10618;BME280;5356;43.526;26.534;2023-04-02T11:14:28;98224.34;;;17.82;75.51
10618;BME280;5356;43.526;26.534;2023-04-02T11:16:55;98218.25;;;17.71;75.68
10618;BME280;5356;43.526;26.534;2023-04-02T11:19:25;98226.84;;;17.73;75.76
10618;BME280;5356;43.526;26.534;2023-04-02T11:21:54;98218.44;;;17.80;70.99
10618;BME280;5356;43.526;26.534;2023-04-02T11:30:02;98218.00;;;18.11;72.40
10618;BME280;5356;43.526;26.534;2023-04-02T11:32:26;98217.50;;;18.09;68.34
10618;BME280;5356;43.526;26.534;2023-04-02T11:37:41;98224.88;;;18.03;69.35
10618;BME280;5356;43.526;26.534;2023-04-02T11:42:38;98220.16;;;18.28;66.08
10618;BME280;5356;43.526;26.534;2023-04-02T11:50:45;98214.19;;;18.31;66.91
10618;BME280;5356;43.526;26.534;2023-04-02T11:55:41;98214.00;;;18.08;68.14
10618;BME280;5356;43.526;26.534;2023-04-02T12:01:32;98220.53;;;17.64;70.50
10618;BME280;5356;43.526;26.534;2023-04-02T12:09:45;98213.09;;;17.75;75.82
10618;BME280;5356;43.526;26.534;2023-04-02T12:14:50;98202.50;;;17.84;76.58
10618;BME280;5356;43.526;26.534;2023-04-02T12:22:37;98207.00;;;17.69;72.76
10618;BME280;5356;43.526;26.534;2023-04-02T12:25:35;98208.44;;;17.62;72.57
10618;BME280;5356;43.526;26.534;2023-04-02T12:30:39;98205.28;;;17.36;73.67
10618;BME280;5356;43.526;26.534;2023-04-02T12:35:48;98208.97;;;17.40;73.53
10618;BME280;5356;43.526;26.534;2023-04-02T12:38:26;98207.38;;;17.58;73.90
10618;BME280;5356;43.526;26.534;2023-04-02T12:41:01;98199.19;;;17.68;72.81
10618;BME280;5356;43.526;26.534;2023-04-02T12:43:32;98203.25;;;17.65;71.27
10618;BME280;5356;43.526;26.534;2023-04-02T12:46:03;98204.63;;;17.87;70.58
10618;BME280;5356;43.526;26.534;2023-04-02T12:48:30;98197.47;;;17.96;70.45
10618;BME280;5356;43.526;26.534;2023-04-02T12:50:57;98196.50;;;18.06;70.92
10618;BME280;5356;43.526;26.534;2023-04-02T12:53:26;98205.59;;;18.29;70.99
10618;BME280;5356;43.526;26.534;2023-04-02T12:55:53;98205.88;;;18.27;68.87
10618;BME280;5356;43.526;26.534;2023-04-02T12:58:36;98215.22;;;18.35;68.19
10618;BME280;5356;43.526;26.534;2023-04-02T13:01:16;98198.47;;;18.52;67.67
10618;BME280;5356;43.526;26.534;2023-04-02T13:04:09;98191.94;;;18.72;68.54
10618;BME280;5356;43.526;26.534;2023-04-02T13:06:40;98206.31;;;18.67;66.13
10618;BME280;5356;43.526;26.534;2023-04-02T13:09:28;98202.09;;;18.61;66.77
10618;BME280;5356;43.526;26.534;2023-04-02T13:11:55;98200.47;;;18.46;67.78
10618;BME280;5356;43.526;26.534;2023-04-02T13:14:22;98196.38;;;18.49;66.35
10618;BME280;5356;43.526;26.534;2023-04-02T13:16:48;98199.63;;;18.32;67.47
10618;BME280;5356;43.526;26.534;2023-04-02T13:19:27;98192.03;;;18.34;67.37
10618;BME280;5356;43.526;26.534;2023-04-02T13:21:55;98190.44;;;18.33;66.93
10618;BME280;5356;43.526;26.534;2023-04-02T13:24:23;98192.28;;;18.18;66.64
10618;BME280;5356;43.526;26.534;2023-04-02T13:26:52;98197.94;;;18.17;66.41
10618;BME280;5356;43.526;26.534;2023-04-02T13:29:25;98195.06;;;18.13;66.42
10618;BME280;5356;43.526;26.534;2023-04-02T13:31:52;98208.47;;;18.00;65.53
10618;BME280;5356;43.526;26.534;2023-04-02T13:34:19;98206.88;;;17.99;66.58
10618;BME280;5356;43.526;26.534;2023-04-02T13:36:46;98199.16;;;17.92;65.20
10618;BME280;5356;43.526;26.534;2023-04-02T13:39:12;98198.19;;;17.83;65.13
10618;BME280;5356;43.526;26.534;2023-04-02T13:41:48;98197.41;;;17.82;64.62
10618;BME280;5356;43.526;26.534;2023-04-02T13:44:39;98190.91;;;17.83;63.82
10618;BME280;5356;43.526;26.534;2023-04-02T13:47:04;98198.13;;;17.88;62.88
10618;BME280;5356;43.526;26.534;2023-04-02T13:49:30;98191.28;;;17.95;63.55
10618;BME280;5356;43.526;26.534;2023-04-02T13:51:58;98190.56;;;17.90;62.23
10618;BME280;5356;43.526;26.534;2023-04-02T13:54:45;98192.16;;;17.91;62.98
10618;BME280;5356;43.526;26.534;2023-04-02T13:57:13;98192.75;;;17.88;63.21
10618;BME280;5356;43.526;26.534;2023-04-02T13:59:39;98191.94;;;17.87;62.95
10618;BME280;5356;43.526;26.534;2023-04-02T14:02:11;98187.66;;;17.86;63.11
10618;BME280;5356;43.526;26.534;2023-04-02T14:04:41;98186.25;;;17.89;63.22
10618;BME280;5356;43.526;26.534;2023-04-02T14:07:18;98190.72;;;17.74;63.15
10618;BME280;5356;43.526;26.534;2023-04-02T14:10:11;98188.19;;;17.64;63.91
10618;BME280;5356;43.526;26.534;2023-04-02T14:24:06;98197.22;;;17.73;63.89
10618;BME280;5356;43.526;26.534;2023-04-02T14:29:15;98186.94;;;17.81;64.55
10618;BME280;5356;43.526;26.534;2023-04-02T14:31:52;98186.03;;;18.04;65.20
10618;BME280;5356;43.526;26.534;2023-04-02T14:34:45;98183.34;;;18.04;65.18
10618;BME280;5356;43.526;26.534;2023-04-02T14:40:42;98188.00;;;17.99;64.64
10618;BME280;5356;43.526;26.534;2023-04-02T14:43:19;98191.34;;;17.90;64.64
10618;BME280;5356;43.526;26.534;2023-04-02T14:46:01;98192.66;;;17.93;65.12
10618;BME280;5356;43.526;26.534;2023-04-02T14:57:15;98194.97;;;18.18;60.83
10618;BME280;5356;43.526;26.534;2023-04-02T15:05:01;98196.28;;;18.21;60.70
10618;BME280;5356;43.526;26.534;2023-04-02T15:07:35;98190.84;;;18.07;60.64
10618;BME280;5356;43.526;26.534;2023-04-02T15:12:51;98191.69;;;18.22;60.54
10618;BME280;5356;43.526;26.534;2023-04-02T15:15:36;98201.28;;;18.28;61.19
10618;BME280;5356;43.526;26.534;2023-04-02T15:18:07;98203.19;;;18.27;61.70
10618;BME280;5356;43.526;26.534;2023-04-02T15:27:20;98210.28;;;18.04;60.25
10618;BME280;5356;43.526;26.534;2023-04-02T15:32:29;98211.44;;;18.17;60.63
10618;BME280;5356;43.526;26.534;2023-04-02T15:40:56;98214.34;;;18.53;60.56
10618;BME280;5356;43.526;26.534;2023-04-02T15:43:43;98217.75;;;18.59;59.67
10618;BME280;5356;43.526;26.534;2023-04-02T15:46:21;98219.75;;;18.53;59.25
10618;BME280;5356;43.526;26.534;2023-04-02T15:52:24;98216.06;;;18.49;58.72
10618;BME280;5356;43.526;26.534;2023-04-02T15:57:44;98219.09;;;18.43;58.56
10618;BME280;5356;43.526;26.534;2023-04-02T16:00:24;98221.81;;;18.43;58.91
10618;BME280;5356;43.526;26.534;2023-04-02T16:06:10;98222.19;;;18.36;58.38
10618;BME280;5356;43.526;26.534;2023-04-02T16:11:22;98226.25;;;18.52;57.95
10618;BME280;5356;43.526;26.534;2023-04-02T16:13:47;98227.34;;;18.51;58.66
10618;BME280;5356;43.526;26.534;2023-04-02T16:16:33;98235.13;;;18.53;59.03
10618;BME280;5356;43.526;26.534;2023-04-02T16:21:37;98236.47;;;18.36;58.94
10618;BME280;5356;43.526;26.534;2023-04-02T16:24:11;98245.66;;;18.35;59.13
10618;BME280;5356;43.526;26.534;2023-04-02T16:29:33;98239.09;;;18.23;59.28
10618;BME280;5356;43.526;26.534;2023-04-02T16:34:41;98248.59;;;18.01;59.97
10618;BME280;5356;43.526;26.534;2023-04-02T16:45:41;98250.88;;;17.27;63.07
10618;BME280;5356;43.526;26.534;2023-04-02T16:54:18;98260.81;;;16.68;67.56
10618;BME280;5356;43.526;26.534;2023-04-02T16:59:21;98273.56;;;16.18;69.97
10618;BME280;5356;43.526;26.534;2023-04-02T17:04:31;98265.44;;;15.79;71.87
10618;BME280;5356;43.526;26.534;2023-04-02T17:10:06;98278.22;;;15.37;74.63
10618;BME280;5356;43.526;26.534;2023-04-02T17:12:43;98279.88;;;15.18;74.25
10618;BME280;5356;43.526;26.534;2023-04-02T17:15:20;98280.72;;;14.93;75.68
10618;BME280;5356;43.526;26.534;2023-04-02T17:17:47;98288.75;;;14.77;76.13
10618;BME280;5356;43.526;26.534;2023-04-02T17:20:21;98294.41;;;14.76;76.97
10618;BME280;5356;43.526;26.534;2023-04-02T17:22:47;98294.41;;;14.76;77.75
10618;BME280;5356;43.526;26.534;2023-04-02T17:25:24;98304.03;;;14.77;78.12
10618;BME280;5356;43.526;26.534;2023-04-02T17:27:54;98306.47;;;14.68;77.83
10618;BME280;5356;43.526;26.534;2023-04-02T17:30:42;98314.22;;;14.49;78.68
10618;BME280;5356;43.526;26.534;2023-04-02T17:33:16;98308.56;;;14.46;79.16
10618;BME280;5356;43.526;26.534;2023-04-02T17:44:32;98332.81;;;13.88;83.05
10618;BME280;5356;43.526;26.534;2023-04-02T17:47:22;98340.81;;;13.83;84.03
10618;BME280;5356;43.526;26.534;2023-04-02T17:57:57;98348.25;;;13.70;86.19
10618;BME280;5356;43.526;26.534;2023-04-02T18:00:37;98353.63;;;13.70;86.25
10618;BME280;5356;43.526;26.534;2023-04-02T18:03:24;98345.00;;;13.63;86.54
10618;BME280;5356;43.526;26.534;2023-04-02T18:14:57;98367.53;;;13.30;87.62
10618;BME280;5356;43.526;26.534;2023-04-02T18:17:48;98367.75;;;13.23;87.88
10618;BME280;5356;43.526;26.534;2023-04-02T18:20:30;98370.22;;;12.98;88.39
10618;BME280;5356;43.526;26.534;2023-04-02T18:40:06;98389.63;;;12.56;91.68
10618;BME280;5356;43.526;26.534;2023-04-02T18:43:01;98392.22;;;12.51;92.45
10618;BME280;5356;43.526;26.534;2023-04-02T18:48:33;98392.88;;;12.36;93.57
10618;BME280;5356;43.526;26.534;2023-04-02T18:51:03;98396.13;;;12.38;93.50
10618;BME280;5356;43.526;26.534;2023-04-02T18:53:30;98398.44;;;12.29;94.19
10618;BME280;5356;43.526;26.534;2023-04-02T18:56:05;98396.78;;;12.23;94.34
10618;BME280;5356;43.526;26.534;2023-04-02T18:58:44;98403.91;;;12.18;94.32
10618;BME280;5356;43.526;26.534;2023-04-02T19:01:14;98403.28;;;12.10;94.96
10618;BME280;5356;43.526;26.534;2023-04-02T19:03:48;98398.25;;;12.14;95.69
10618;BME280;5356;43.526;26.534;2023-04-02T19:06:26;98408.25;;;12.02;95.91
10618;BME280;5356;43.526;26.534;2023-04-02T19:08:57;98404.50;;;12.03;95.81
10618;BME280;5356;43.526;26.534;2023-04-02T19:11:24;98400.03;;;12.08;95.80
10618;BME280;5356;43.526;26.534;2023-04-02T19:14:01;98405.66;;;12.07;95.88
10618;BME280;5356;43.526;26.534;2023-04-02T19:35:40;98410.19;;;11.67;99.29
10618;BME280;5356;43.526;26.534;2023-04-02T19:43:33;98425.22;;;11.57;99.50
10618;BME280;5356;43.526;26.534;2023-04-02T19:45:59;98424.41;;;11.56;99.23
10618;BME280;5356;43.526;26.534;2023-04-02T19:48:43;98422.88;;;11.43;100.00
10618;BME280;5356;43.526;26.534;2023-04-02T19:51:12;98417.34;;;11.28;100.00
10618;BME280;5356;43.526;26.534;2023-04-02T19:53:37;98414.75;;;11.33;100.00
10618;BME280;5356;43.526;26.534;2023-04-02T19:56:03;98415.47;;;11.29;100.00
10618;BME280;5356;43.526;26.534;2023-04-02T19:58:33;98420.97;;;11.22;100.00
10618;BME280;5356;43.526;26.534;2023-04-02T20:01:00;98417.00;;;11.24;100.00
10618;BME280;5356;43.526;26.534;2023-04-02T20:03:28;98419.91;;;11.23;100.00
10618;BME280;5356;43.526;26.534;2023-04-02T20:05:55;98420.72;;;11.23;100.00
10618;BME280;5356;43.526;26.534;2023-04-02T20:08:26;98429.19;;;11.20;100.00
10618;BME280;5356;43.526;26.534;2023-04-02T20:10:53;98428.88;;;11.17;100.00
10618;BME280;5356;43.526;26.534;2023-04-02T20:13:23;98425.63;;;11.15;100.00
10618;BME280;5356;43.526;26.534;2023-04-02T20:15:48;98429.19;;;11.04;100.00
10618;BME280;5356;43.526;26.534;2023-04-02T20:18:16;98421.75;;;11.06;100.00
10618;BME280;5356;43.526;26.534;2023-04-02T20:20:44;98429.28;;;11.09;100.00
10618;BME280;5356;43.526;26.534;2023-04-02T20:23:11;98426.03;;;11.07;100.00
10618;BME280;5356;43.526;26.534;2023-04-02T20:25:37;98432.09;;;11.02;100.00
10618;BME280;5356;43.526;26.534;2023-04-02T20:28:03;98434.69;;;10.97;100.00
10618;BME280;5356;43.526;26.534;2023-04-02T20:30:29;98430.41;;;10.96;100.00
10618;BME280;5356;43.526;26.534;2023-04-02T20:32:59;98435.38;;;10.92;100.00
10618;BME280;5356;43.526;26.534;2023-04-02T20:35:25;98434.06;;;10.78;100.00
10618;BME280;5356;43.526;26.534;2023-04-02T20:37:50;98429.28;;;10.63;100.00
10618;BME280;5356;43.526;26.534;2023-04-02T20:40:16;98426.63;;;10.63;100.00